sensor_id;sensor_type;location;lat;lon;timestamp;temperature;humidity
24678;DHT22;12800;53.094;8.778;2023-01-15T00:01:04;9.10;89.40
24678;DHT22;12800;53.094;8.778;2023-01-15T00:03:30;9.10;89.40
24678;DHT22;12800;53.094;8.778;2023-01-15T00:06:01;9.10;89.40
24678;DHT22;12800;53.094;8.778;2023-01-15T00:08:27;9.10;89.30
24678;DHT22;12800;53.094;8.778;2023-01-15T00:10:53;9.10;89.40
24678;DHT22;12800;53.094;8.778;2023-01-15T00:13:20;9.10;89.40
24678;DHT22;12800;53.094;8.778;2023-01-15T00:15:46;9.10;89.50
24678;DHT22;12800;53.094;8.778;2023-01-15T00:18:11;9.10;89.30
24678;DHT22;12800;53.094;8.778;2023-01-15T00:20:37;9.10;89.30
24678;DHT22;12800;53.094;8.778;2023-01-15T00:23:03;9.10;89.30
24678;DHT22;12800;53.094;8.778;2023-01-15T00:25:28;9.10;89.00
24678;DHT22;12800;53.094;8.778;2023-01-15T00:28:12;9.10;88.90
24678;DHT22;12800;53.094;8.778;2023-01-15T00:30:40;9.10;88.70
24678;DHT22;12800;53.094;8.778;2023-01-15T00:33:07;9.10;88.90
24678;DHT22;12800;53.094;8.778;2023-01-15T00:35:33;9.10;88.90
24678;DHT22;12800;53.094;8.778;2023-01-15T00:37:58;9.10;88.70
24678;DHT22;12800;53.094;8.778;2023-01-15T00:40:24;9.10;88.60
24678;DHT22;12800;53.094;8.778;2023-01-15T00:42:50;9.10;88.50
24678;DHT22;12800;53.094;8.778;2023-01-15T00:45:16;9.10;88.30
24678;DHT22;12800;53.094;8.778;2023-01-15T00:47:43;9.10;88.30
24678;DHT22;12800;53.094;8.778;2023-01-15T00:50:11;9.10;88.30
24678;DHT22;12800;53.094;8.778;2023-01-15T00:52:37;9.10;88.00
24678;DHT22;12800;53.094;8.778;2023-01-15T00:55:04;9.10;87.70
24678;DHT22;12800;53.094;8.778;2023-01-15T00:57:30;9.10;87.80
24678;DHT22;12800;53.094;8.778;2023-01-15T00:59:55;9.10;87.70
24678;DHT22;12800;53.094;8.778;2023-01-15T01:02:21;9.10;87.60
24678;DHT22;12800;53.094;8.778;2023-01-15T01:04:46;9.10;87.50
24678;DHT22;12800;53.094;8.778;2023-01-15T01:07:12;9.10;87.40
24678;DHT22;12800;53.094;8.778;2023-01-15T01:09:38;9.10;87.20
24678;DHT22;12800;53.094;8.778;2023-01-15T01:12:04;9.10;87.10
24678;DHT22;12800;53.094;8.778;2023-01-15T01:14:30;9.10;87.10
24678;DHT22;12800;53.094;8.778;2023-01-15T01:16:56;9.00;86.80
24678;DHT22;12800;53.094;8.778;2023-01-15T01:19:23;9.00;86.70
24678;DHT22;12800;53.094;8.778;2023-01-15T01:21:50;9.00;86.70
24678;DHT22;12800;53.094;8.778;2023-01-15T01:24:21;9.00;86.70
24678;DHT22;12800;53.094;8.778;2023-01-15T01:26:48;9.00;86.80
24678;DHT22;12800;53.094;8.778;2023-01-15T01:29:19;9.00;86.70
24678;DHT22;12800;53.094;8.778;2023-01-15T01:31:45;9.00;86.40
24678;DHT22;12800;53.094;8.778;2023-01-15T01:34:12;9.00;86.40
24678;DHT22;12800;53.094;8.778;2023-01-15T01:36:39;9.00;86.40
24678;DHT22;12800;53.094;8.778;2023-01-15T01:39:06;9.00;86.40
24678;DHT22;12800;53.094;8.778;2023-01-15T01:41:34;8.90;86.20
24678;DHT22;12800;53.094;8.778;2023-01-15T01:44:03;8.90;86.10
24678;DHT22;12800;53.094;8.778;2023-01-15T01:46:31;8.90;86.30
24678;DHT22;12800;53.094;8.778;2023-01-15T01:49:09;8.90;86.30
24678;DHT22;12800;53.094;8.778;2023-01-15T01:51:46;9.00;86.50
24678;DHT22;12800;53.094;8.778;2023-01-15T01:54:16;9.00;86.40
24678;DHT22;12800;53.094;8.778;2023-01-15T01:56:42;9.00;86.40
24678;DHT22;12800;53.094;8.778;2023-01-15T01:59:08;9.00;86.40
24678;DHT22;12800;53.094;8.778;2023-01-15T02:01:34;9.00;86.20
24678;DHT22;12800;53.094;8.778;2023-01-15T02:04:00;9.00;86.20
24678;DHT22;12800;53.094;8.778;2023-01-15T02:06:28;9.00;86.30
24678;DHT22;12800;53.094;8.778;2023-01-15T02:08:54;9.00;86.20
24678;DHT22;12800;53.094;8.778;2023-01-15T02:11:21;9.00;86.30
24678;DHT22;12800;53.094;8.778;2023-01-15T02:13:59;9.00;86.30
24678;DHT22;12800;53.094;8.778;2023-01-15T02:16:39;9.00;86.20
24678;DHT22;12800;53.094;8.778;2023-01-15T02:24:57;9.00;86.00
24678;DHT22;12800;53.094;8.778;2023-01-15T02:27:25;9.00;85.90
24678;DHT22;12800;53.094;8.778;2023-01-15T02:30:01;9.00;85.80
24678;DHT22;12800;53.094;8.778;2023-01-15T02:32:35;9.00;85.70
24678;DHT22;12800;53.094;8.778;2023-01-15T02:35:11;9.00;85.80
24678;DHT22;12800;53.094;8.778;2023-01-15T02:37:42;9.00;85.70
24678;DHT22;12800;53.094;8.778;2023-01-15T02:40:11;9.00;85.70
24678;DHT22;12800;53.094;8.778;2023-01-15T02:42:38;9.00;85.60
24678;DHT22;12800;53.094;8.778;2023-01-15T02:45:07;9.00;85.50
24678;DHT22;12800;53.094;8.778;2023-01-15T02:47:37;9.00;85.60
24678;DHT22;12800;53.094;8.778;2023-01-15T02:50:07;9.00;85.50
24678;DHT22;12800;53.094;8.778;2023-01-15T02:52:37;9.00;85.50
24678;DHT22;12800;53.094;8.778;2023-01-15T02:55:09;9.00;85.40
24678;DHT22;12800;53.094;8.778;2023-01-15T02:57:38;9.00;85.30
24678;DHT22;12800;53.094;8.778;2023-01-15T03:00:08;9.00;85.20
24678;DHT22;12800;53.094;8.778;2023-01-15T03:02:40;9.00;85.10
24678;DHT22;12800;53.094;8.778;2023-01-15T03:05:26;8.90;85.00
24678;DHT22;12800;53.094;8.778;2023-01-15T03:08:04;8.90;85.00
24678;DHT22;12800;53.094;8.778;2023-01-15T03:10:46;8.90;85.70
24678;DHT22;12800;53.094;8.778;2023-01-15T03:16:37;8.90;84.70
24678;DHT22;12800;53.094;8.778;2023-01-15T03:21:58;8.90;84.80
24678;DHT22;12800;53.094;8.778;2023-01-15T03:24:28;8.90;85.50
24678;DHT22;12800;53.094;8.778;2023-01-15T03:26:54;8.90;84.70
24678;DHT22;12800;53.094;8.778;2023-01-15T03:29:28;8.90;84.70
24678;DHT22;12800;53.094;8.778;2023-01-15T03:31:54;8.90;84.60
24678;DHT22;12800;53.094;8.778;2023-01-15T03:34:20;8.90;84.50
24678;DHT22;12800;53.094;8.778;2023-01-15T03:36:46;8.90;84.50
24678;DHT22;12800;53.094;8.778;2023-01-15T03:39:12;8.90;84.20
24678;DHT22;12800;53.094;8.778;2023-01-15T03:44:51;8.90;83.90
24678;DHT22;12800;53.094;8.778;2023-01-15T03:55:29;8.80;83.70
24678;DHT22;12800;53.094;8.778;2023-01-15T03:58:00;8.80;83.60
24678;DHT22;12800;53.094;8.778;2023-01-15T04:00:34;8.80;83.60
24678;DHT22;12800;53.094;8.778;2023-01-15T04:03:03;8.80;83.50
24678;DHT22;12800;53.094;8.778;2023-01-15T04:05:31;8.80;83.50
24678;DHT22;12800;53.094;8.778;2023-01-15T04:07:58;8.80;83.50
24678;DHT22;12800;53.094;8.778;2023-01-15T04:10:25;8.80;83.40
24678;DHT22;12800;53.094;8.778;2023-01-15T04:12:51;8.80;83.30
24678;DHT22;12800;53.094;8.778;2023-01-15T04:15:16;8.80;83.20
24678;DHT22;12800;53.094;8.778;2023-01-15T04:17:42;8.80;83.20
24678;DHT22;12800;53.094;8.778;2023-01-15T04:20:08;8.80;83.30
24678;DHT22;12800;53.094;8.778;2023-01-15T04:22:34;8.80;83.10
24678;DHT22;12800;53.094;8.778;2023-01-15T04:25:04;8.80;83.10
24678;DHT22;12800;53.094;8.778;2023-01-15T04:27:30;8.80;82.80
24678;DHT22;12800;53.094;8.778;2023-01-15T04:29:56;8.80;82.90
24678;DHT22;12800;53.094;8.778;2023-01-15T04:32:22;8.80;82.70
24678;DHT22;12800;53.094;8.778;2023-01-15T04:34:47;8.80;82.50
24678;DHT22;12800;53.094;8.778;2023-01-15T04:37:14;8.80;82.70
24678;DHT22;12800;53.094;8.778;2023-01-15T04:39:40;8.90;82.50
24678;DHT22;12800;53.094;8.778;2023-01-15T04:42:07;8.90;82.50
24678;DHT22;12800;53.094;8.778;2023-01-15T04:44:52;8.90;82.40
24678;DHT22;12800;53.094;8.778;2023-01-15T04:47:17;8.90;82.10
24678;DHT22;12800;53.094;8.778;2023-01-15T04:49:43;8.80;81.90
24678;DHT22;12800;53.094;8.778;2023-01-15T04:52:08;8.80;81.90
24678;DHT22;12800;53.094;8.778;2023-01-15T04:54:34;8.80;81.70
24678;DHT22;12800;53.094;8.778;2023-01-15T04:57:00;8.80;81.80
24678;DHT22;12800;53.094;8.778;2023-01-15T04:59:26;8.80;81.70
24678;DHT22;12800;53.094;8.778;2023-01-15T05:01:53;8.80;81.80
24678;DHT22;12800;53.094;8.778;2023-01-15T05:04:19;8.80;81.60
24678;DHT22;12800;53.094;8.778;2023-01-15T05:06:44;8.90;81.60
24678;DHT22;12800;53.094;8.778;2023-01-15T05:09:10;8.90;81.60
24678;DHT22;12800;53.094;8.778;2023-01-15T05:11:37;8.80;81.50
24678;DHT22;12800;53.094;8.778;2023-01-15T05:14:03;8.80;81.50
24678;DHT22;12800;53.094;8.778;2023-01-15T05:16:29;8.80;81.40
24678;DHT22;12800;53.094;8.778;2023-01-15T05:19:00;8.80;81.30
24678;DHT22;12800;53.094;8.778;2023-01-15T05:21:30;8.80;81.20
24678;DHT22;12800;53.094;8.778;2023-01-15T05:23:57;8.80;81.00
24678;DHT22;12800;53.094;8.778;2023-01-15T05:26:26;8.80;81.10
24678;DHT22;12800;53.094;8.778;2023-01-15T05:28:56;8.80;81.00
24678;DHT22;12800;53.094;8.778;2023-01-15T05:31:22;8.80;80.80
24678;DHT22;12800;53.094;8.778;2023-01-15T05:33:49;8.80;80.70
24678;DHT22;12800;53.094;8.778;2023-01-15T05:36:18;8.80;80.40
24678;DHT22;12800;53.094;8.778;2023-01-15T05:38:44;8.80;80.60
24678;DHT22;12800;53.094;8.778;2023-01-15T05:41:16;8.80;80.40
24678;DHT22;12800;53.094;8.778;2023-01-15T05:44:03;8.80;80.40
24678;DHT22;12800;53.094;8.778;2023-01-15T05:46:29;8.80;80.40
24678;DHT22;12800;53.094;8.778;2023-01-15T05:48:59;8.70;80.20
24678;DHT22;12800;53.094;8.778;2023-01-15T05:51:25;8.70;80.30
24678;DHT22;12800;53.094;8.778;2023-01-15T05:53:51;8.70;80.40
24678;DHT22;12800;53.094;8.778;2023-01-15T05:56:16;8.80;80.40
24678;DHT22;12800;53.094;8.778;2023-01-15T05:58:42;8.70;80.20
24678;DHT22;12800;53.094;8.778;2023-01-15T06:01:08;8.70;80.90
24678;DHT22;12800;53.094;8.778;2023-01-15T06:03:35;8.70;80.30
24678;DHT22;12800;53.094;8.778;2023-01-15T06:06:01;8.70;80.60
24678;DHT22;12800;53.094;8.778;2023-01-15T06:08:26;8.70;80.60
24678;DHT22;12800;53.094;8.778;2023-01-15T06:10:52;8.70;81.10
24678;DHT22;12800;53.094;8.778;2023-01-15T06:13:17;8.70;80.30
24678;DHT22;12800;53.094;8.778;2023-01-15T06:15:43;8.70;80.40
24678;DHT22;12800;53.094;8.778;2023-01-15T06:18:09;8.70;80.50
24678;DHT22;12800;53.094;8.778;2023-01-15T06:20:36;8.70;80.30
24678;DHT22;12800;53.094;8.778;2023-01-15T06:23:02;8.70;80.20
24678;DHT22;12800;53.094;8.778;2023-01-15T06:25:27;8.70;80.20
24678;DHT22;12800;53.094;8.778;2023-01-15T06:27:53;8.70;80.10
24678;DHT22;12800;53.094;8.778;2023-01-15T06:30:19;8.70;80.10
24678;DHT22;12800;53.094;8.778;2023-01-15T06:32:44;8.70;80.00
24678;DHT22;12800;53.094;8.778;2023-01-15T06:35:10;8.70;79.90
24678;DHT22;12800;53.094;8.778;2023-01-15T06:37:37;8.60;79.90
24678;DHT22;12800;53.094;8.778;2023-01-15T06:40:03;8.60;80.00
24678;DHT22;12800;53.094;8.778;2023-01-15T06:42:29;8.60;79.90
24678;DHT22;12800;53.094;8.778;2023-01-15T06:45:13;8.60;79.90
24678;DHT22;12800;53.094;8.778;2023-01-15T06:47:57;8.60;79.80
24678;DHT22;12800;53.094;8.778;2023-01-15T06:50:24;8.60;80.00
24678;DHT22;12800;53.094;8.778;2023-01-15T06:52:50;8.60;79.70
24678;DHT22;12800;53.094;8.778;2023-01-15T06:55:16;8.60;79.80
24678;DHT22;12800;53.094;8.778;2023-01-15T06:57:43;8.60;79.60
24678;DHT22;12800;53.094;8.778;2023-01-15T07:00:10;8.50;79.50
24678;DHT22;12800;53.094;8.778;2023-01-15T07:02:36;8.50;80.20
24678;DHT22;12800;53.094;8.778;2023-01-15T07:05:03;8.50;79.50
24678;DHT22;12800;53.094;8.778;2023-01-15T07:07:29;8.50;79.50
24678;DHT22;12800;53.094;8.778;2023-01-15T07:09:55;8.50;79.50
24678;DHT22;12800;53.094;8.778;2023-01-15T07:12:21;8.50;79.40
24678;DHT22;12800;53.094;8.778;2023-01-15T07:14:47;8.50;79.20
24678;DHT22;12800;53.094;8.778;2023-01-15T07:17:13;8.50;79.20
24678;DHT22;12800;53.094;8.778;2023-01-15T07:19:38;8.40;79.00
24678;DHT22;12800;53.094;8.778;2023-01-15T07:22:05;8.40;78.90
24678;DHT22;12800;53.094;8.778;2023-01-15T07:24:31;8.40;78.90
24678;DHT22;12800;53.094;8.778;2023-01-15T07:26:57;8.40;78.80
24678;DHT22;12800;53.094;8.778;2023-01-15T07:29:23;8.40;78.90
24678;DHT22;12800;53.094;8.778;2023-01-15T07:31:49;8.40;78.80
24678;DHT22;12800;53.094;8.778;2023-01-15T07:34:15;8.40;78.90
24678;DHT22;12800;53.094;8.778;2023-01-15T07:36:41;8.30;78.90
24678;DHT22;12800;53.094;8.778;2023-01-15T07:39:08;8.30;78.80
24678;DHT22;12800;53.094;8.778;2023-01-15T07:41:34;8.30;78.90
24678;DHT22;12800;53.094;8.778;2023-01-15T07:44:18;8.30;78.90
24678;DHT22;12800;53.094;8.778;2023-01-15T07:47:03;8.30;78.90
24678;DHT22;12800;53.094;8.778;2023-01-15T07:49:52;8.30;79.00
24678;DHT22;12800;53.094;8.778;2023-01-15T07:52:21;8.30;79.00
24678;DHT22;12800;53.094;8.778;2023-01-15T07:54:48;8.20;79.00
24678;DHT22;12800;53.094;8.778;2023-01-15T07:57:18;8.20;79.00
24678;DHT22;12800;53.094;8.778;2023-01-15T07:59:45;8.20;79.00
24678;DHT22;12800;53.094;8.778;2023-01-15T08:02:11;8.20;78.80
24678;DHT22;12800;53.094;8.778;2023-01-15T08:04:37;8.30;79.00
24678;DHT22;12800;53.094;8.778;2023-01-15T08:07:04;8.20;78.80
24678;DHT22;12800;53.094;8.778;2023-01-15T08:09:30;8.30;79.10
24678;DHT22;12800;53.094;8.778;2023-01-15T08:11:58;8.30;78.70
24678;DHT22;12800;53.094;8.778;2023-01-15T08:14:43;8.30;78.60
24678;DHT22;12800;53.094;8.778;2023-01-15T08:17:27;8.30;78.40
24678;DHT22;12800;53.094;8.778;2023-01-15T08:19:53;8.20;78.00
24678;DHT22;12800;53.094;8.778;2023-01-15T08:22:19;8.20;78.00
24678;DHT22;12800;53.094;8.778;2023-01-15T08:24:45;8.20;77.80
24678;DHT22;12800;53.094;8.778;2023-01-15T08:27:11;8.20;77.60
24678;DHT22;12800;53.094;8.778;2023-01-15T08:29:38;8.20;77.50
24678;DHT22;12800;53.094;8.778;2023-01-15T08:32:04;8.20;77.40
24678;DHT22;12800;53.094;8.778;2023-01-15T08:34:29;8.20;77.10
24678;DHT22;12800;53.094;8.778;2023-01-15T08:36:55;8.10;76.80
24678;DHT22;12800;53.094;8.778;2023-01-15T08:39:24;8.20;76.70
24678;DHT22;12800;53.094;8.778;2023-01-15T08:41:50;8.10;76.50
24678;DHT22;12800;53.094;8.778;2023-01-15T08:44:15;8.10;76.30
24678;DHT22;12800;53.094;8.778;2023-01-15T08:46:41;8.10;76.30
24678;DHT22;12800;53.094;8.778;2023-01-15T08:49:09;8.00;75.90
24678;DHT22;12800;53.094;8.778;2023-01-15T08:51:35;8.00;75.90
24678;DHT22;12800;53.094;8.778;2023-01-15T08:54:01;8.00;75.80
24678;DHT22;12800;53.094;8.778;2023-01-15T08:56:26;8.00;75.70
24678;DHT22;12800;53.094;8.778;2023-01-15T08:58:52;8.00;75.70
24678;DHT22;12800;53.094;8.778;2023-01-15T09:01:18;8.00;75.80
24678;DHT22;12800;53.094;8.778;2023-01-15T09:03:44;8.00;75.80
24678;DHT22;12800;53.094;8.778;2023-01-15T09:06:09;8.00;75.90
24678;DHT22;12800;53.094;8.778;2023-01-15T09:08:36;7.90;75.90
24678;DHT22;12800;53.094;8.778;2023-01-15T09:11:03;7.90;76.20
24678;DHT22;12800;53.094;8.778;2023-01-15T09:13:29;7.90;76.30
24678;DHT22;12800;53.094;8.778;2023-01-15T09:16:01;8.00;76.40
24678;DHT22;12800;53.094;8.778;2023-01-15T09:18:28;8.00;76.50
24678;DHT22;12800;53.094;8.778;2023-01-15T09:20:54;8.00;76.60
24678;DHT22;12800;53.094;8.778;2023-01-15T09:23:20;8.00;76.60
24678;DHT22;12800;53.094;8.778;2023-01-15T09:25:57;8.00;76.70
24678;DHT22;12800;53.094;8.778;2023-01-15T09:28:23;8.00;76.60
24678;DHT22;12800;53.094;8.778;2023-01-15T09:30:49;8.00;76.50
24678;DHT22;12800;53.094;8.778;2023-01-15T09:33:15;8.00;76.50
24678;DHT22;12800;53.094;8.778;2023-01-15T09:35:44;8.00;76.30
24678;DHT22;12800;53.094;8.778;2023-01-15T09:38:14;8.00;76.10
24678;DHT22;12800;53.094;8.778;2023-01-15T09:40:50;8.10;75.80
24678;DHT22;12800;53.094;8.778;2023-01-15T09:43:50;8.10;75.50
24678;DHT22;12800;53.094;8.778;2023-01-15T09:46:39;8.10;75.30
24678;DHT22;12800;53.094;8.778;2023-01-15T09:52:02;8.20;74.70
24678;DHT22;12800;53.094;8.778;2023-01-15T09:57:18;8.30;74.50
24678;DHT22;12800;53.094;8.778;2023-01-15T09:59:48;8.40;74.60
24678;DHT22;12800;53.094;8.778;2023-01-15T10:02:26;8.40;73.90
24678;DHT22;12800;53.094;8.778;2023-01-15T10:05:22;8.50;73.90
24678;DHT22;12800;53.094;8.778;2023-01-15T10:10:29;8.50;73.60
24678;DHT22;12800;53.094;8.778;2023-01-15T10:13:13;8.60;73.60
24678;DHT22;12800;53.094;8.778;2023-01-15T10:15:46;8.70;73.50
24678;DHT22;12800;53.094;8.778;2023-01-15T10:18:21;8.70;73.60
24678;DHT22;12800;53.094;8.778;2023-01-15T10:26:35;8.70;73.20
24678;DHT22;12800;53.094;8.778;2023-01-15T10:37:14;8.80;74.10
24678;DHT22;12800;53.094;8.778;2023-01-15T10:45:24;9.00;73.60
24678;DHT22;12800;53.094;8.778;2023-01-15T10:50:47;9.20;73.00
24678;DHT22;12800;53.094;8.778;2023-01-15T10:53:38;9.30;72.70
24678;DHT22;12800;53.094;8.778;2023-01-15T11:01:36;9.10;71.80
24678;DHT22;12800;53.094;8.778;2023-01-15T11:04:03;9.00;72.20
24678;DHT22;12800;53.094;8.778;2023-01-15T11:06:30;8.70;73.40
24678;DHT22;12800;53.094;8.778;2023-01-15T11:08:58;8.30;73.00
24678;DHT22;12800;53.094;8.778;2023-01-15T11:11:34;8.00;74.10
24678;DHT22;12800;53.094;8.778;2023-01-15T11:14:20;7.70;74.80
24678;DHT22;12800;53.094;8.778;2023-01-15T11:17:12;7.60;76.20
24678;DHT22;12800;53.094;8.778;2023-01-15T11:19:57;7.40;77.10
24678;DHT22;12800;53.094;8.778;2023-01-15T11:22:22;7.30;77.50
24678;DHT22;12800;53.094;8.778;2023-01-15T11:27:19;7.20;78.80
24678;DHT22;12800;53.094;8.778;2023-01-15T11:29:50;7.20;79.50
24678;DHT22;12800;53.094;8.778;2023-01-15T11:32:20;7.20;79.70
24678;DHT22;12800;53.094;8.778;2023-01-15T11:34:58;7.20;79.80
24678;DHT22;12800;53.094;8.778;2023-01-15T11:37:25;7.20;79.70
24678;DHT22;12800;53.094;8.778;2023-01-15T11:40:01;7.20;79.90
24678;DHT22;12800;53.094;8.778;2023-01-15T11:42:31;7.30;80.00
24678;DHT22;12800;53.094;8.778;2023-01-15T11:45:20;7.30;80.30
24678;DHT22;12800;53.094;8.778;2023-01-15T11:48:23;7.30;80.20
24678;DHT22;12800;53.094;8.778;2023-01-15T11:51:09;7.30;80.50
24678;DHT22;12800;53.094;8.778;2023-01-15T11:53:52;7.40;81.00
24678;DHT22;12800;53.094;8.778;2023-01-15T11:56:21;7.40;81.10
24678;DHT22;12800;53.094;8.778;2023-01-15T11:58:56;7.50;81.40
24678;DHT22;12800;53.094;8.778;2023-01-15T12:01:33;7.60;81.70
24678;DHT22;12800;53.094;8.778;2023-01-15T12:04:04;7.70;81.50
24678;DHT22;12800;53.094;8.778;2023-01-15T12:06:34;7.80;81.50
24678;DHT22;12800;53.094;8.778;2023-01-15T12:09:24;7.90;81.20
24678;DHT22;12800;53.094;8.778;2023-01-15T12:12:14;7.90;81.00
24678;DHT22;12800;53.094;8.778;2023-01-15T12:15:06;8.00;80.70
24678;DHT22;12800;53.094;8.778;2023-01-15T12:23:59;8.20;80.50
24678;DHT22;12800;53.094;8.778;2023-01-15T12:27:18;8.30;79.80
24678;DHT22;12800;53.094;8.778;2023-01-15T12:31:53;8.40;79.10
24678;DHT22;12800;53.094;8.778;2023-01-15T12:34:26;8.50;79.50
24678;DHT22;12800;53.094;8.778;2023-01-15T12:37:13;8.60;78.50
24678;DHT22;12800;53.094;8.778;2023-01-15T12:39:48;8.70;79.00
24678;DHT22;12800;53.094;8.778;2023-01-15T12:42:18;8.70;78.10
24678;DHT22;12800;53.094;8.778;2023-01-15T12:45:19;8.70;77.70
24678;DHT22;12800;53.094;8.778;2023-01-15T12:50:48;8.70;78.10
24678;DHT22;12800;53.094;8.778;2023-01-15T12:56:06;8.50;77.80
24678;DHT22;12800;53.094;8.778;2023-01-15T12:58:46;8.30;78.10
24678;DHT22;12800;53.094;8.778;2023-01-15T13:01:44;8.30;78.40
24678;DHT22;12800;53.094;8.778;2023-01-15T13:04:31;8.30;79.10
24678;DHT22;12800;53.094;8.778;2023-01-15T13:07:03;8.30;79.30
24678;DHT22;12800;53.094;8.778;2023-01-15T13:09:39;8.30;80.00
24678;DHT22;12800;53.094;8.778;2023-01-15T13:12:11;8.30;78.90
24678;DHT22;12800;53.094;8.778;2023-01-15T13:14:41;8.40;78.70
24678;DHT22;12800;53.094;8.778;2023-01-15T13:20:01;8.40;78.70
24678;DHT22;12800;53.094;8.778;2023-01-15T13:22:29;8.50;78.50
24678;DHT22;12800;53.094;8.778;2023-01-15T13:25:21;8.50;78.20
24678;DHT22;12800;53.094;8.778;2023-01-15T13:33:28;8.60;77.40
24678;DHT22;12800;53.094;8.778;2023-01-15T13:36:05;8.60;77.20
24678;DHT22;12800;53.094;8.778;2023-01-15T13:38:39;8.60;76.90
24678;DHT22;12800;53.094;8.778;2023-01-15T13:41:07;8.60;76.70
24678;DHT22;12800;53.094;8.778;2023-01-15T13:43:39;8.60;76.30
24678;DHT22;12800;53.094;8.778;2023-01-15T13:46:12;8.60;75.80
24678;DHT22;12800;53.094;8.778;2023-01-15T13:48:47;8.70;75.80
24678;DHT22;12800;53.094;8.778;2023-01-15T13:51:31;8.70;75.80
24678;DHT22;12800;53.094;8.778;2023-01-15T13:54:02;8.70;75.60
24678;DHT22;12800;53.094;8.778;2023-01-15T13:56:32;8.80;75.50
24678;DHT22;12800;53.094;8.778;2023-01-15T13:59:30;8.80;75.60
24678;DHT22;12800;53.094;8.778;2023-01-15T14:01:51;8.80;75.20
24678;DHT22;12800;53.094;8.778;2023-01-15T14:04:30;8.80;74.90
24678;DHT22;12800;53.094;8.778;2023-01-15T14:06:56;8.90;74.70
24678;DHT22;12800;53.094;8.778;2023-01-15T14:12:00;8.90;74.80
24678;DHT22;12800;53.094;8.778;2023-01-15T14:15:07;8.90;74.80
24678;DHT22;12800;53.094;8.778;2023-01-15T14:20:47;8.90;74.30
24678;DHT22;12800;53.094;8.778;2023-01-15T14:34:55;8.90;74.60
24678;DHT22;12800;53.094;8.778;2023-01-15T14:37:31;8.90;74.70
24678;DHT22;12800;53.094;8.778;2023-01-15T14:39:59;8.90;74.50
24678;DHT22;12800;53.094;8.778;2023-01-15T14:42:37;8.90;74.50
24678;DHT22;12800;53.094;8.778;2023-01-15T14:45:43;8.80;74.30
24678;DHT22;12800;53.094;8.778;2023-01-15T14:54:07;8.80;74.30
24678;DHT22;12800;53.094;8.778;2023-01-15T14:56:39;8.80;74.20
24678;DHT22;12800;53.094;8.778;2023-01-15T14:59:24;8.80;74.10
24678;DHT22;12800;53.094;8.778;2023-01-15T15:01:56;8.80;74.40
24678;DHT22;12800;53.094;8.778;2023-01-15T15:04:44;8.80;74.50
24678;DHT22;12800;53.094;8.778;2023-01-15T15:09:47;8.70;75.30
24678;DHT22;12800;53.094;8.778;2023-01-15T15:12:37;8.70;75.60
24678;DHT22;12800;53.094;8.778;2023-01-15T15:15:18;8.60;76.10
24678;DHT22;12800;53.094;8.778;2023-01-15T15:23:55;8.40;77.00
24678;DHT22;12800;53.094;8.778;2023-01-15T15:26:29;8.40;77.60
24678;DHT22;12800;53.094;8.778;2023-01-15T15:29:03;8.40;78.00
24678;DHT22;12800;53.094;8.778;2023-01-15T15:31:45;8.40;78.10
24678;DHT22;12800;53.094;8.778;2023-01-15T15:34:36;8.40;78.10
24678;DHT22;12800;53.094;8.778;2023-01-15T15:37:14;8.30;78.10
24678;DHT22;12800;53.094;8.778;2023-01-15T15:39:46;8.30;78.20
24678;DHT22;12800;53.094;8.778;2023-01-15T15:42:38;8.30;78.50
24678;DHT22;12800;53.094;8.778;2023-01-15T15:45:26;8.30;78.60
24678;DHT22;12800;53.094;8.778;2023-01-15T15:48:12;8.30;78.80
24678;DHT22;12800;53.094;8.778;2023-01-15T15:50:57;8.20;79.10
24678;DHT22;12800;53.094;8.778;2023-01-15T15:53:23;8.20;79.50
24678;DHT22;12800;53.094;8.778;2023-01-15T15:55:49;8.10;79.80
24678;DHT22;12800;53.094;8.778;2023-01-15T15:58:33;8.00;80.40
24678;DHT22;12800;53.094;8.778;2023-01-15T16:01:00;7.80;81.00
24678;DHT22;12800;53.094;8.778;2023-01-15T16:03:28;7.60;81.50
24678;DHT22;12800;53.094;8.778;2023-01-15T16:06:05;7.50;81.70
24678;DHT22;12800;53.094;8.778;2023-01-15T16:08:33;7.40;82.40
24678;DHT22;12800;53.094;8.778;2023-01-15T16:11:01;7.30;82.80
24678;DHT22;12800;53.094;8.778;2023-01-15T16:13:34;7.30;83.20
24678;DHT22;12800;53.094;8.778;2023-01-15T16:16:03;7.30;83.60
24678;DHT22;12800;53.094;8.778;2023-01-15T16:18:39;7.30;83.80
24678;DHT22;12800;53.094;8.778;2023-01-15T16:21:09;7.30;84.20
24678;DHT22;12800;53.094;8.778;2023-01-15T16:23:35;7.30;84.40
24678;DHT22;12800;53.094;8.778;2023-01-15T16:28:35;7.30;85.20
24678;DHT22;12800;53.094;8.778;2023-01-15T16:31:03;7.40;85.00
24678;DHT22;12800;53.094;8.778;2023-01-15T16:33:29;7.40;85.10
24678;DHT22;12800;53.094;8.778;2023-01-15T16:35:59;7.40;85.00
24678;DHT22;12800;53.094;8.778;2023-01-15T16:38:39;7.40;85.90
24678;DHT22;12800;53.094;8.778;2023-01-15T16:41:06;7.40;85.10
24678;DHT22;12800;53.094;8.778;2023-01-15T16:43:55;7.40;85.40
24678;DHT22;12800;53.094;8.778;2023-01-15T16:46:25;7.40;85.40
24678;DHT22;12800;53.094;8.778;2023-01-15T16:51:49;7.50;85.50
24678;DHT22;12800;53.094;8.778;2023-01-15T16:56:57;7.50;85.40
24678;DHT22;12800;53.094;8.778;2023-01-15T17:01:54;7.50;85.20
24678;DHT22;12800;53.094;8.778;2023-01-15T17:07:02;7.50;85.30
24678;DHT22;12800;53.094;8.778;2023-01-15T17:09:32;7.40;85.40
24678;DHT22;12800;53.094;8.778;2023-01-15T17:12:02;7.40;85.40
24678;DHT22;12800;53.094;8.778;2023-01-15T17:14:29;7.40;85.40
24678;DHT22;12800;53.094;8.778;2023-01-15T17:19:46;7.40;85.60
24678;DHT22;12800;53.094;8.778;2023-01-15T17:22:23;7.40;85.60
24678;DHT22;12800;53.094;8.778;2023-01-15T17:24:52;7.40;85.50
24678;DHT22;12800;53.094;8.778;2023-01-15T17:27:18;7.50;85.50
24678;DHT22;12800;53.094;8.778;2023-01-15T17:29:43;7.50;85.50
24678;DHT22;12800;53.094;8.778;2023-01-15T17:32:15;7.50;85.30
24678;DHT22;12800;53.094;8.778;2023-01-15T17:34:42;7.40;85.30
24678;DHT22;12800;53.094;8.778;2023-01-15T17:37:07;7.40;85.30
24678;DHT22;12800;53.094;8.778;2023-01-15T17:39:33;7.40;86.30
24678;DHT22;12800;53.094;8.778;2023-01-15T17:41:59;7.40;85.40
24678;DHT22;12800;53.094;8.778;2023-01-15T17:44:24;7.40;85.50
24678;DHT22;12800;53.094;8.778;2023-01-15T17:46:50;7.50;85.70
24678;DHT22;12800;53.094;8.778;2023-01-15T17:49:16;7.50;85.40
24678;DHT22;12800;53.094;8.778;2023-01-15T17:51:41;7.50;85.30
24678;DHT22;12800;53.094;8.778;2023-01-15T17:54:07;7.50;85.30
24678;DHT22;12800;53.094;8.778;2023-01-15T17:56:33;7.50;85.30
24678;DHT22;12800;53.094;8.778;2023-01-15T17:59:17;7.50;85.50
24678;DHT22;12800;53.094;8.778;2023-01-15T18:02:03;7.50;85.40
24678;DHT22;12800;53.094;8.778;2023-01-15T18:04:50;7.50;85.50
24678;DHT22;12800;53.094;8.778;2023-01-15T18:07:54;7.40;85.50
24678;DHT22;12800;53.094;8.778;2023-01-15T18:10:23;7.40;85.60
24678;DHT22;12800;53.094;8.778;2023-01-15T18:12:49;7.40;85.70
24678;DHT22;12800;53.094;8.778;2023-01-15T18:15:16;7.40;85.80
24678;DHT22;12800;53.094;8.778;2023-01-15T18:17:43;7.40;86.60
24678;DHT22;12800;53.094;8.778;2023-01-15T18:20:09;7.40;85.90
24678;DHT22;12800;53.094;8.778;2023-01-15T18:22:35;7.40;86.20